Terminal Aerodrome Forecast
Issued by NWS

Home | Current Version | Previous Version | Text Only | Print | Product List | Glossary On
Versions: 1 2 3 4 5 6 7 8 9 10 11 12 13 14 15 16 17
000
FTUS44 KCRP 221700
TAFALI
TAF
KALI 221729Z 2218/2318 14015G25KT P6SM SCT040
     FM230200 16012KT P6SM SCT025
     FM230700 17003KT P6SM SCT015
      TEMPO 2310/2312 BKN015
     FM231500 15012G18KT P6SM SCT035=

USA.gov is the U.S. government's official web portal to all federal, state and local government web resources and services.